Westdorpe, Netherlands
Current Conditions -  °F | °C
As of 2:25 AM on Wednesday 22 Oct 2014 (Local Time) from EHFS Reporting Station
Overcast Overcast  
Wind Chill: 52°   Ceiling: 3800
Heat Index: 52°   Visibility: 6mi
Dew Point: 39°   Wind: 23mph
Humidity: 62%   Direction: 300°WNW
Pressure: 29.97"   Gusts: 38mph
Location:  51.23°N, 3.83°E
Report Text: EHFS 220025Z AUTO 30020G33KT 260V330 9999 FEW032/// BKN038///OVC043/// 11/04 Q1015
Loading
Personal Weather Stations






























Interactive Weather Map
Tropical Storm Tracking
New forecast layout! Learn more

10-Day Weather Forecast

Advertisements
Track Severe Weather on mobile